sensor_id;sensor_type;location;lat;lon;timestamp;P1;durP1;ratioP1;P2;durP2;ratioP2
48859;SDS011;34679;51.436;-2.518;2023-03-17T00:00:14;5.20;;;2.13;;
48859;SDS011;34679;51.436;-2.518;2023-03-17T00:02:41;4.97;;;2.30;;
48859;SDS011;34679;51.436;-2.518;2023-03-17T00:07:53;3.50;;;2.20;;
48859;SDS011;34679;51.436;-2.518;2023-03-17T00:10:24;7.25;;;2.15;;
48859;SDS011;34679;51.436;-2.518;2023-03-17T00:12:51;4.15;;;2.50;;
48859;SDS011;34679;51.436;-2.518;2023-03-17T00:15:19;4.53;;;2.25;;
48859;SDS011;34679;51.436;-2.518;2023-03-17T00:17:50;4.82;;;2.20;;
48859;SDS011;34679;51.436;-2.518;2023-03-17T00:22:45;4.60;;;2.53;;
48859;SDS011;34679;51.436;-2.518;2023-03-17T00:25:16;7.18;;;2.50;;
48859;SDS011;34679;51.436;-2.518;2023-03-17T00:27:44;5.75;;;2.25;;
48859;SDS011;34679;51.436;-2.518;2023-03-17T00:30:09;8.20;;;2.42;;
48859;SDS011;34679;51.436;-2.518;2023-03-17T00:32:36;7.15;;;2.30;;
48859;SDS011;34679;51.436;-2.518;2023-03-17T00:35:04;7.80;;;2.60;;
48859;SDS011;34679;51.436;-2.518;2023-03-17T00:37:40;9.90;;;2.70;;
48859;SDS011;34679;51.436;-2.518;2023-03-17T00:40:13;9.38;;;2.53;;
48859;SDS011;34679;51.436;-2.518;2023-03-17T00:42:40;9.55;;;2.47;;
48859;SDS011;34679;51.436;-2.518;2023-03-17T00:45:06;11.48;;;2.40;;
48859;SDS011;34679;51.436;-2.518;2023-03-17T00:47:32;11.02;;;2.33;;
48859;SDS011;34679;51.436;-2.518;2023-03-17T00:49:58;9.35;;;3.75;;
48859;SDS011;34679;51.436;-2.518;2023-03-17T00:52:23;9.23;;;3.05;;
48859;SDS011;34679;51.436;-2.518;2023-03-17T00:54:50;9.48;;;3.13;;
48859;SDS011;34679;51.436;-2.518;2023-03-17T00:57:16;11.35;;;2.83;;
48859;SDS011;34679;51.436;-2.518;2023-03-17T00:59:43;13.20;;;2.75;;
48859;SDS011;34679;51.436;-2.518;2023-03-17T01:02:10;7.28;;;2.30;;
48859;SDS011;34679;51.436;-2.518;2023-03-17T01:04:36;6.63;;;2.17;;
48859;SDS011;34679;51.436;-2.518;2023-03-17T01:07:01;8.48;;;2.22;;
48859;SDS011;34679;51.436;-2.518;2023-03-17T01:09:28;15.45;;;2.80;;
48859;SDS011;34679;51.436;-2.518;2023-03-17T01:11:54;12.52;;;2.88;;
48859;SDS011;34679;51.436;-2.518;2023-03-17T01:14:20;11.75;;;2.78;;
48859;SDS011;34679;51.436;-2.518;2023-03-17T01:16:46;10.88;;;2.63;;
48859;SDS011;34679;51.436;-2.518;2023-03-17T01:19:12;9.95;;;2.33;;
48859;SDS011;34679;51.436;-2.518;2023-03-17T01:21:38;8.18;;;2.60;;
48859;SDS011;34679;51.436;-2.518;2023-03-17T01:24:05;12.88;;;3.42;;
48859;SDS011;34679;51.436;-2.518;2023-03-17T01:26:32;8.98;;;2.10;;
48859;SDS011;34679;51.436;-2.518;2023-03-17T01:28:58;9.73;;;2.38;;
48859;SDS011;34679;51.436;-2.518;2023-03-17T01:31:23;12.32;;;2.55;;
48859;SDS011;34679;51.436;-2.518;2023-03-17T01:33:50;11.25;;;3.00;;
48859;SDS011;34679;51.436;-2.518;2023-03-17T01:36:16;16.25;;;2.97;;
48859;SDS011;34679;51.436;-2.518;2023-03-17T01:38:42;11.23;;;2.85;;
48859;SDS011;34679;51.436;-2.518;2023-03-17T01:41:08;15.25;;;2.47;;
48859;SDS011;34679;51.436;-2.518;2023-03-17T01:43:34;13.63;;;2.50;;
48859;SDS011;34679;51.436;-2.518;2023-03-17T01:48:51;7.28;;;2.05;;
48859;SDS011;34679;51.436;-2.518;2023-03-17T01:51:32;8.50;;;2.30;;
48859;SDS011;34679;51.436;-2.518;2023-03-17T01:54:04;11.82;;;2.22;;
48859;SDS011;34679;51.436;-2.518;2023-03-17T01:56:33;10.05;;;2.40;;
48859;SDS011;34679;51.436;-2.518;2023-03-17T01:59:02;12.32;;;2.55;;
48859;SDS011;34679;51.436;-2.518;2023-03-17T02:01:39;12.32;;;2.33;;
48859;SDS011;34679;51.436;-2.518;2023-03-17T02:04:08;4.85;;;1.98;;
48859;SDS011;34679;51.436;-2.518;2023-03-17T02:06:35;6.72;;;1.80;;
48859;SDS011;34679;51.436;-2.518;2023-03-17T02:09:02;8.93;;;2.00;;
48859;SDS011;34679;51.436;-2.518;2023-03-17T02:11:28;9.07;;;2.25;;
48859;SDS011;34679;51.436;-2.518;2023-03-17T02:13:55;7.85;;;2.30;;
48859;SDS011;34679;51.436;-2.518;2023-03-17T02:16:21;7.25;;;2.20;;
48859;SDS011;34679;51.436;-2.518;2023-03-17T02:18:47;5.90;;;2.00;;
48859;SDS011;34679;51.436;-2.518;2023-03-17T02:24:51;5.32;;;1.83;;
48859;SDS011;34679;51.436;-2.518;2023-03-17T02:26:58;8.52;;;2.55;;
48859;SDS011;34679;51.436;-2.518;2023-03-17T02:29:40;7.40;;;2.35;;
48859;SDS011;34679;51.436;-2.518;2023-03-17T02:32:06;4.63;;;1.92;;
48859;SDS011;34679;51.436;-2.518;2023-03-17T02:34:33;8.25;;;2.00;;
48859;SDS011;34679;51.436;-2.518;2023-03-17T02:36:59;3.22;;;2.00;;
48859;SDS011;34679;51.436;-2.518;2023-03-17T02:39:25;6.35;;;1.92;;
48859;SDS011;34679;51.436;-2.518;2023-03-17T02:41:51;7.47;;;1.83;;
48859;SDS011;34679;51.436;-2.518;2023-03-17T02:44:17;5.18;;;1.70;;
48859;SDS011;34679;51.436;-2.518;2023-03-17T02:46:43;8.77;;;1.90;;
48859;SDS011;34679;51.436;-2.518;2023-03-17T02:49:09;6.50;;;2.38;;
48859;SDS011;34679;51.436;-2.518;2023-03-17T02:51:36;4.97;;;1.42;;
48859;SDS011;34679;51.436;-2.518;2023-03-17T02:54:02;5.90;;;1.63;;
48859;SDS011;34679;51.436;-2.518;2023-03-17T02:56:28;4.60;;;1.20;;
48859;SDS011;34679;51.436;-2.518;2023-03-17T02:58:54;7.82;;;1.60;;
48859;SDS011;34679;51.436;-2.518;2023-03-17T03:01:20;11.35;;;1.75;;
48859;SDS011;34679;51.436;-2.518;2023-03-17T03:03:46;2.95;;;1.38;;
48859;SDS011;34679;51.436;-2.518;2023-03-17T03:06:11;7.95;;;1.70;;
48859;SDS011;34679;51.436;-2.518;2023-03-17T03:08:37;5.53;;;1.73;;
48859;SDS011;34679;51.436;-2.518;2023-03-17T03:11:03;10.38;;;1.92;;
48859;SDS011;34679;51.436;-2.518;2023-03-17T03:13:29;4.43;;;1.90;;
48859;SDS011;34679;51.436;-2.518;2023-03-17T03:15:55;10.70;;;2.25;;
48859;SDS011;34679;51.436;-2.518;2023-03-17T03:18:21;17.08;;;3.28;;
48859;SDS011;34679;51.436;-2.518;2023-03-17T03:20:47;9.07;;;1.85;;
48859;SDS011;34679;51.436;-2.518;2023-03-17T03:23:14;6.78;;;1.85;;
48859;SDS011;34679;51.436;-2.518;2023-03-17T03:25:40;8.13;;;1.88;;
48859;SDS011;34679;51.436;-2.518;2023-03-17T03:28:06;11.15;;;2.22;;
48859;SDS011;34679;51.436;-2.518;2023-03-17T03:30:34;6.28;;;1.35;;
48859;SDS011;34679;51.436;-2.518;2023-03-17T03:33:00;10.80;;;2.10;;
48859;SDS011;34679;51.436;-2.518;2023-03-17T03:35:27;9.35;;;2.30;;
48859;SDS011;34679;51.436;-2.518;2023-03-17T03:37:53;10.02;;;2.13;;
48859;SDS011;34679;51.436;-2.518;2023-03-17T03:40:20;14.38;;;1.83;;
48859;SDS011;34679;51.436;-2.518;2023-03-17T03:42:47;10.73;;;2.10;;
48859;SDS011;34679;51.436;-2.518;2023-03-17T03:45:12;9.05;;;1.63;;
48859;SDS011;34679;51.436;-2.518;2023-03-17T03:47:38;11.93;;;2.20;;
48859;SDS011;34679;51.436;-2.518;2023-03-17T03:50:04;13.52;;;2.15;;
48859;SDS011;34679;51.436;-2.518;2023-03-17T03:52:30;10.18;;;2.17;;
48859;SDS011;34679;51.436;-2.518;2023-03-17T03:54:56;12.10;;;1.92;;
48859;SDS011;34679;51.436;-2.518;2023-03-17T03:57:22;10.95;;;2.15;;
48859;SDS011;34679;51.436;-2.518;2023-03-17T03:59:48;8.07;;;1.73;;
48859;SDS011;34679;51.436;-2.518;2023-03-17T04:02:13;13.30;;;1.98;;
48859;SDS011;34679;51.436;-2.518;2023-03-17T04:04:41;8.98;;;2.17;;
48859;SDS011;34679;51.436;-2.518;2023-03-17T04:07:07;11.13;;;2.10;;
48859;SDS011;34679;51.436;-2.518;2023-03-17T04:09:33;10.88;;;2.05;;
48859;SDS011;34679;51.436;-2.518;2023-03-17T04:12:00;12.32;;;2.40;;
48859;SDS011;34679;51.436;-2.518;2023-03-17T04:14:26;14.32;;;2.22;;
48859;SDS011;34679;51.436;-2.518;2023-03-17T04:16:52;8.43;;;2.45;;
48859;SDS011;34679;51.436;-2.518;2023-03-17T04:19:18;13.50;;;2.50;;
48859;SDS011;34679;51.436;-2.518;2023-03-17T04:21:45;9.80;;;2.35;;
48859;SDS011;34679;51.436;-2.518;2023-03-17T04:24:11;18.08;;;3.28;;
48859;SDS011;34679;51.436;-2.518;2023-03-17T04:26:38;17.95;;;2.78;;
48859;SDS011;34679;51.436;-2.518;2023-03-17T04:29:05;20.75;;;2.65;;
48859;SDS011;34679;51.436;-2.518;2023-03-17T04:31:34;14.05;;;2.20;;
48859;SDS011;34679;51.436;-2.518;2023-03-17T04:34:00;12.00;;;2.90;;
48859;SDS011;34679;51.436;-2.518;2023-03-17T04:36:26;12.80;;;3.55;;
48859;SDS011;34679;51.436;-2.518;2023-03-17T04:38:52;9.88;;;2.42;;
48859;SDS011;34679;51.436;-2.518;2023-03-17T04:41:18;9.45;;;2.67;;
48859;SDS011;34679;51.436;-2.518;2023-03-17T04:43:45;18.35;;;3.22;;
48859;SDS011;34679;51.436;-2.518;2023-03-17T04:46:11;9.65;;;2.25;;
48859;SDS011;34679;51.436;-2.518;2023-03-17T04:48:37;15.65;;;2.88;;
48859;SDS011;34679;51.436;-2.518;2023-03-17T04:51:03;21.38;;;3.38;;
48859;SDS011;34679;51.436;-2.518;2023-03-17T04:53:28;15.43;;;3.05;;
48859;SDS011;34679;51.436;-2.518;2023-03-17T04:55:54;20.15;;;3.40;;
48859;SDS011;34679;51.436;-2.518;2023-03-17T04:58:20;18.52;;;2.83;;
48859;SDS011;34679;51.436;-2.518;2023-03-17T05:00:46;15.82;;;3.13;;
48859;SDS011;34679;51.436;-2.518;2023-03-17T05:03:12;14.35;;;2.95;;
48859;SDS011;34679;51.436;-2.518;2023-03-17T05:05:38;17.40;;;3.08;;
48859;SDS011;34679;51.436;-2.518;2023-03-17T05:08:03;24.63;;;3.83;;
48859;SDS011;34679;51.436;-2.518;2023-03-17T05:10:29;15.60;;;2.83;;
48859;SDS011;34679;51.436;-2.518;2023-03-17T05:12:55;15.70;;;3.10;;
48859;SDS011;34679;51.436;-2.518;2023-03-17T05:15:21;27.63;;;3.85;;
48859;SDS011;34679;51.436;-2.518;2023-03-17T05:17:46;20.33;;;3.75;;
48859;SDS011;34679;51.436;-2.518;2023-03-17T05:20:12;26.05;;;3.70;;
48859;SDS011;34679;51.436;-2.518;2023-03-17T05:22:39;16.60;;;3.50;;
48859;SDS011;34679;51.436;-2.518;2023-03-17T05:25:05;22.10;;;4.68;;
48859;SDS011;34679;51.436;-2.518;2023-03-17T05:27:31;21.20;;;3.20;;
48859;SDS011;34679;51.436;-2.518;2023-03-17T05:29:57;16.30;;;3.45;;
48859;SDS011;34679;51.436;-2.518;2023-03-17T05:32:23;19.70;;;3.50;;
48859;SDS011;34679;51.436;-2.518;2023-03-17T05:34:49;16.80;;;3.45;;
48859;SDS011;34679;51.436;-2.518;2023-03-17T05:37:16;18.27;;;3.20;;
48859;SDS011;34679;51.436;-2.518;2023-03-17T05:39:41;22.40;;;3.72;;
48859;SDS011;34679;51.436;-2.518;2023-03-17T05:42:07;25.40;;;5.63;;
48859;SDS011;34679;51.436;-2.518;2023-03-17T05:44:33;16.15;;;3.17;;
48859;SDS011;34679;51.436;-2.518;2023-03-17T05:46:59;16.25;;;4.10;;
48859;SDS011;34679;51.436;-2.518;2023-03-17T05:49:26;15.88;;;3.80;;
48859;SDS011;34679;51.436;-2.518;2023-03-17T05:51:52;25.15;;;3.22;;
48859;SDS011;34679;51.436;-2.518;2023-03-17T05:54:19;22.10;;;4.57;;
48859;SDS011;34679;51.436;-2.518;2023-03-17T05:56:46;15.70;;;3.13;;
48859;SDS011;34679;51.436;-2.518;2023-03-17T05:59:12;19.27;;;3.33;;
48859;SDS011;34679;51.436;-2.518;2023-03-17T06:01:42;28.70;;;3.40;;
48859;SDS011;34679;51.436;-2.518;2023-03-17T06:04:08;17.08;;;2.85;;
48859;SDS011;34679;51.436;-2.518;2023-03-17T06:06:34;22.85;;;3.22;;
48859;SDS011;34679;51.436;-2.518;2023-03-17T06:09:00;17.38;;;3.15;;
48859;SDS011;34679;51.436;-2.518;2023-03-17T06:11:26;29.98;;;4.00;;
48859;SDS011;34679;51.436;-2.518;2023-03-17T06:13:52;25.42;;;3.97;;
48859;SDS011;34679;51.436;-2.518;2023-03-17T06:16:18;16.25;;;4.47;;
48859;SDS011;34679;51.436;-2.518;2023-03-17T06:18:44;18.42;;;4.97;;
48859;SDS011;34679;51.436;-2.518;2023-03-17T06:21:11;22.30;;;3.53;;
48859;SDS011;34679;51.436;-2.518;2023-03-17T06:23:37;15.02;;;3.35;;
48859;SDS011;34679;51.436;-2.518;2023-03-17T06:26:03;15.13;;;3.97;;
48859;SDS011;34679;51.436;-2.518;2023-03-17T06:28:29;17.10;;;3.85;;
48859;SDS011;34679;51.436;-2.518;2023-03-17T06:30:55;13.52;;;3.78;;
48859;SDS011;34679;51.436;-2.518;2023-03-17T06:33:20;18.48;;;4.80;;
48859;SDS011;34679;51.436;-2.518;2023-03-17T06:35:46;12.00;;;3.03;;
48859;SDS011;34679;51.436;-2.518;2023-03-17T06:38:12;27.67;;;4.20;;
48859;SDS011;34679;51.436;-2.518;2023-03-17T06:40:37;16.08;;;3.38;;
48859;SDS011;34679;51.436;-2.518;2023-03-17T06:43:03;17.75;;;4.22;;
48859;SDS011;34679;51.436;-2.518;2023-03-17T06:45:29;18.23;;;3.13;;
48859;SDS011;34679;51.436;-2.518;2023-03-17T06:47:56;20.55;;;2.78;;
48859;SDS011;34679;51.436;-2.518;2023-03-17T06:50:22;19.30;;;3.10;;
48859;SDS011;34679;51.436;-2.518;2023-03-17T06:52:49;14.43;;;3.10;;
48859;SDS011;34679;51.436;-2.518;2023-03-17T06:55:15;15.43;;;2.83;;
48859;SDS011;34679;51.436;-2.518;2023-03-17T06:57:41;18.65;;;3.83;;
48859;SDS011;34679;51.436;-2.518;2023-03-17T07:00:07;10.05;;;3.10;;
48859;SDS011;34679;51.436;-2.518;2023-03-17T07:02:33;17.85;;;3.17;;
48859;SDS011;34679;51.436;-2.518;2023-03-17T07:04:59;16.83;;;3.13;;
48859;SDS011;34679;51.436;-2.518;2023-03-17T07:07:25;17.85;;;3.67;;
48859;SDS011;34679;51.436;-2.518;2023-03-17T07:09:52;18.58;;;3.30;;
48859;SDS011;34679;51.436;-2.518;2023-03-17T07:12:18;16.27;;;2.95;;
48859;SDS011;34679;51.436;-2.518;2023-03-17T07:14:44;16.20;;;3.15;;
48859;SDS011;34679;51.436;-2.518;2023-03-17T07:17:10;17.65;;;3.20;;
48859;SDS011;34679;51.436;-2.518;2023-03-17T07:19:37;17.00;;;3.28;;
48859;SDS011;34679;51.436;-2.518;2023-03-17T07:22:03;18.90;;;3.13;;
48859;SDS011;34679;51.436;-2.518;2023-03-17T07:24:30;16.17;;;3.17;;
48859;SDS011;34679;51.436;-2.518;2023-03-17T07:26:56;20.13;;;6.05;;
48859;SDS011;34679;51.436;-2.518;2023-03-17T07:29:21;16.00;;;3.00;;
48859;SDS011;34679;51.436;-2.518;2023-03-17T07:31:47;18.17;;;4.07;;
48859;SDS011;34679;51.436;-2.518;2023-03-17T07:34:13;15.73;;;3.10;;
48859;SDS011;34679;51.436;-2.518;2023-03-17T07:36:40;17.63;;;3.22;;
48859;SDS011;34679;51.436;-2.518;2023-03-17T07:39:06;18.55;;;3.35;;
48859;SDS011;34679;51.436;-2.518;2023-03-17T07:41:32;11.32;;;3.70;;
48859;SDS011;34679;51.436;-2.518;2023-03-17T07:43:58;11.88;;;3.10;;
48859;SDS011;34679;51.436;-2.518;2023-03-17T07:46:24;15.70;;;3.53;;
48859;SDS011;34679;51.436;-2.518;2023-03-17T07:48:50;17.13;;;4.22;;
48859;SDS011;34679;51.436;-2.518;2023-03-17T07:51:18;18.73;;;4.90;;
48859;SDS011;34679;51.436;-2.518;2023-03-17T07:53:46;23.10;;;5.22;;
48859;SDS011;34679;51.436;-2.518;2023-03-17T07:56:14;13.63;;;4.50;;
48859;SDS011;34679;51.436;-2.518;2023-03-17T07:58:41;18.88;;;4.55;;
48859;SDS011;34679;51.436;-2.518;2023-03-17T08:01:07;21.83;;;4.18;;
48859;SDS011;34679;51.436;-2.518;2023-03-17T08:03:34;14.98;;;3.97;;
48859;SDS011;34679;51.436;-2.518;2023-03-17T08:06:01;17.27;;;5.72;;
48859;SDS011;34679;51.436;-2.518;2023-03-17T08:08:27;16.98;;;3.97;;
48859;SDS011;34679;51.436;-2.518;2023-03-17T08:10:57;16.00;;;3.92;;
48859;SDS011;34679;51.436;-2.518;2023-03-17T08:13:27;15.15;;;4.20;;
48859;SDS011;34679;51.436;-2.518;2023-03-17T08:15:53;15.30;;;3.90;;
48859;SDS011;34679;51.436;-2.518;2023-03-17T08:18:20;14.77;;;3.30;;
48859;SDS011;34679;51.436;-2.518;2023-03-17T08:20:46;18.35;;;3.65;;
48859;SDS011;34679;51.436;-2.518;2023-03-17T08:23:11;22.23;;;5.82;;
48859;SDS011;34679;51.436;-2.518;2023-03-17T08:25:38;11.00;;;3.25;;
48859;SDS011;34679;51.436;-2.518;2023-03-17T08:28:04;14.25;;;3.42;;
48859;SDS011;34679;51.436;-2.518;2023-03-17T08:30:29;20.23;;;3.47;;
48859;SDS011;34679;51.436;-2.518;2023-03-17T08:32:55;11.18;;;3.40;;
48859;SDS011;34679;51.436;-2.518;2023-03-17T08:35:21;17.63;;;4.20;;
48859;SDS011;34679;51.436;-2.518;2023-03-17T08:37:47;15.23;;;3.75;;
48859;SDS011;34679;51.436;-2.518;2023-03-17T08:40:14;19.23;;;3.63;;
48859;SDS011;34679;51.436;-2.518;2023-03-17T08:42:42;19.92;;;4.93;;
48859;SDS011;34679;51.436;-2.518;2023-03-17T08:45:09;16.60;;;4.10;;
48859;SDS011;34679;51.436;-2.518;2023-03-17T08:47:35;19.30;;;3.45;;
48859;SDS011;34679;51.436;-2.518;2023-03-17T08:50:03;12.52;;;3.40;;
48859;SDS011;34679;51.436;-2.518;2023-03-17T08:52:30;14.50;;;3.35;;
48859;SDS011;34679;51.436;-2.518;2023-03-17T08:54:56;13.57;;;3.28;;
48859;SDS011;34679;51.436;-2.518;2023-03-17T08:57:22;12.77;;;3.70;;
48859;SDS011;34679;51.436;-2.518;2023-03-17T08:59:48;14.43;;;3.30;;
48859;SDS011;34679;51.436;-2.518;2023-03-17T09:02:14;13.15;;;2.75;;
48859;SDS011;34679;51.436;-2.518;2023-03-17T09:04:40;19.45;;;4.50;;
48859;SDS011;34679;51.436;-2.518;2023-03-17T09:07:07;18.08;;;3.10;;
48859;SDS011;34679;51.436;-2.518;2023-03-17T09:09:34;12.27;;;2.92;;
48859;SDS011;34679;51.436;-2.518;2023-03-17T09:12:01;12.27;;;2.95;;
48859;SDS011;34679;51.436;-2.518;2023-03-17T09:14:30;13.75;;;2.40;;
48859;SDS011;34679;51.436;-2.518;2023-03-17T09:16:56;15.98;;;2.83;;
48859;SDS011;34679;51.436;-2.518;2023-03-17T09:19:22;14.63;;;2.83;;
48859;SDS011;34679;51.436;-2.518;2023-03-17T09:21:48;22.55;;;2.83;;
48859;SDS011;34679;51.436;-2.518;2023-03-17T09:24:14;13.90;;;2.45;;
48859;SDS011;34679;51.436;-2.518;2023-03-17T09:26:40;17.60;;;2.40;;
48859;SDS011;34679;51.436;-2.518;2023-03-17T09:29:06;20.33;;;2.53;;
48859;SDS011;34679;51.436;-2.518;2023-03-17T09:31:32;12.38;;;2.58;;
48859;SDS011;34679;51.436;-2.518;2023-03-17T09:34:00;16.05;;;2.97;;
48859;SDS011;34679;51.436;-2.518;2023-03-17T09:36:28;11.95;;;2.22;;
48859;SDS011;34679;51.436;-2.518;2023-03-17T09:38:53;15.80;;;1.85;;
48859;SDS011;34679;51.436;-2.518;2023-03-17T09:41:22;11.68;;;2.30;;
48859;SDS011;34679;51.436;-2.518;2023-03-17T09:47:35;11.25;;;2.40;;
48859;SDS011;34679;51.436;-2.518;2023-03-17T09:50:46;16.38;;;2.63;;
48859;SDS011;34679;51.436;-2.518;2023-03-17T09:53:17;8.55;;;1.98;;
48859;SDS011;34679;51.436;-2.518;2023-03-17T09:55:47;9.90;;;2.13;;
48859;SDS011;34679;51.436;-2.518;2023-03-17T09:58:18;13.18;;;2.17;;
48859;SDS011;34679;51.436;-2.518;2023-03-17T10:00:49;16.73;;;2.05;;
48859;SDS011;34679;51.436;-2.518;2023-03-17T10:03:15;12.77;;;3.00;;
48859;SDS011;34679;51.436;-2.518;2023-03-17T10:05:42;13.57;;;2.40;;
48859;SDS011;34679;51.436;-2.518;2023-03-17T10:10:46;13.27;;;2.95;;
48859;SDS011;34679;51.436;-2.518;2023-03-17T10:19:07;12.77;;;2.00;;
48859;SDS011;34679;51.436;-2.518;2023-03-17T10:21:59;13.93;;;3.17;;
48859;SDS011;34679;51.436;-2.518;2023-03-17T10:24:33;13.68;;;2.42;;
48859;SDS011;34679;51.436;-2.518;2023-03-17T10:27:01;10.90;;;1.95;;
48859;SDS011;34679;51.436;-2.518;2023-03-17T10:29:30;10.23;;;2.50;;
48859;SDS011;34679;51.436;-2.518;2023-03-17T10:31:56;11.73;;;2.00;;
48859;SDS011;34679;51.436;-2.518;2023-03-17T10:34:32;11.98;;;2.42;;
48859;SDS011;34679;51.436;-2.518;2023-03-17T10:37:03;13.00;;;2.15;;
48859;SDS011;34679;51.436;-2.518;2023-03-17T10:39:30;11.57;;;2.38;;
48859;SDS011;34679;51.436;-2.518;2023-03-17T10:41:57;9.90;;;1.85;;
48859;SDS011;34679;51.436;-2.518;2023-03-17T10:44:36;9.60;;;2.20;;
48859;SDS011;34679;51.436;-2.518;2023-03-17T10:47:18;13.80;;;2.35;;
48859;SDS011;34679;51.436;-2.518;2023-03-17T10:49:56;11.70;;;2.03;;
48859;SDS011;34679;51.436;-2.518;2023-03-17T10:52:41;7.85;;;1.63;;
48859;SDS011;34679;51.436;-2.518;2023-03-17T10:55:11;9.88;;;1.63;;
48859;SDS011;34679;51.436;-2.518;2023-03-17T10:57:49;6.03;;;1.33;;
48859;SDS011;34679;51.436;-2.518;2023-03-17T11:00:33;9.88;;;1.58;;
48859;SDS011;34679;51.436;-2.518;2023-03-17T11:03:09;10.65;;;1.98;;
48859;SDS011;34679;51.436;-2.518;2023-03-17T11:05:38;9.68;;;1.73;;
48859;SDS011;34679;51.436;-2.518;2023-03-17T11:08:06;9.45;;;2.10;;
48859;SDS011;34679;51.436;-2.518;2023-03-17T11:10:42;12.95;;;2.05;;
48859;SDS011;34679;51.436;-2.518;2023-03-17T11:13:08;10.02;;;2.58;;
48859;SDS011;34679;51.436;-2.518;2023-03-17T11:15:40;13.88;;;1.90;;
48859;SDS011;34679;51.436;-2.518;2023-03-17T11:18:21;13.00;;;2.78;;
48859;SDS011;34679;51.436;-2.518;2023-03-17T11:21:03;10.27;;;1.75;;
48859;SDS011;34679;51.436;-2.518;2023-03-17T11:23:47;10.57;;;1.92;;
48859;SDS011;34679;51.436;-2.518;2023-03-17T11:29:04;9.27;;;1.85;;
48859;SDS011;34679;51.436;-2.518;2023-03-17T11:31:38;12.07;;;2.08;;
48859;SDS011;34679;51.436;-2.518;2023-03-17T11:34:14;11.68;;;1.85;;
48859;SDS011;34679;51.436;-2.518;2023-03-17T11:45:06;8.15;;;1.73;;
48859;SDS011;34679;51.436;-2.518;2023-03-17T11:50:50;7.93;;;2.03;;
48859;SDS011;34679;51.436;-2.518;2023-03-17T11:58:43;10.70;;;1.40;;
48859;SDS011;34679;51.436;-2.518;2023-03-17T12:01:13;10.40;;;1.58;;
48859;SDS011;34679;51.436;-2.518;2023-03-17T12:04:17;8.13;;;1.90;;
48859;SDS011;34679;51.436;-2.518;2023-03-17T12:06:44;8.15;;;1.63;;
48859;SDS011;34679;51.436;-2.518;2023-03-17T12:09:26;14.27;;;2.10;;
48859;SDS011;34679;51.436;-2.518;2023-03-17T12:11:58;6.78;;;1.55;;
48859;SDS011;34679;51.436;-2.518;2023-03-17T12:14:28;7.38;;;1.80;;
48859;SDS011;34679;51.436;-2.518;2023-03-17T12:17:10;6.78;;;1.45;;
48859;SDS011;34679;51.436;-2.518;2023-03-17T12:22:38;7.55;;;1.50;;
48859;SDS011;34679;51.436;-2.518;2023-03-17T12:36:10;10.80;;;1.92;;
48859;SDS011;34679;51.436;-2.518;2023-03-17T12:38:42;7.18;;;1.65;;
48859;SDS011;34679;51.436;-2.518;2023-03-17T12:41:37;11.77;;;2.40;;
48859;SDS011;34679;51.436;-2.518;2023-03-17T12:55:22;15.38;;;2.13;;
48859;SDS011;34679;51.436;-2.518;2023-03-17T12:57:58;11.45;;;2.78;;
48859;SDS011;34679;51.436;-2.518;2023-03-17T13:00:28;12.63;;;1.77;;
48859;SDS011;34679;51.436;-2.518;2023-03-17T13:05:57;11.15;;;2.10;;
48859;SDS011;34679;51.436;-2.518;2023-03-17T13:08:29;9.07;;;2.30;;
48859;SDS011;34679;51.436;-2.518;2023-03-17T13:11:13;8.20;;;1.63;;
48859;SDS011;34679;51.436;-2.518;2023-03-17T13:16:44;11.13;;;1.27;;
48859;SDS011;34679;51.436;-2.518;2023-03-17T13:19:15;11.18;;;1.67;;
48859;SDS011;34679;51.436;-2.518;2023-03-17T13:21:51;12.80;;;1.80;;
48859;SDS011;34679;51.436;-2.518;2023-03-17T13:24:34;11.32;;;1.90;;
48859;SDS011;34679;51.436;-2.518;2023-03-17T13:34:51;9.23;;;1.30;;
48859;SDS011;34679;51.436;-2.518;2023-03-17T13:50:56;11.23;;;2.00;;
48859;SDS011;34679;51.436;-2.518;2023-03-17T13:53:39;10.38;;;1.98;;
48859;SDS011;34679;51.436;-2.518;2023-03-17T13:56:15;14.32;;;2.35;;
48859;SDS011;34679;51.436;-2.518;2023-03-17T14:02:10;11.27;;;1.50;;
48859;SDS011;34679;51.436;-2.518;2023-03-17T14:04:31;16.42;;;2.58;;
48859;SDS011;34679;51.436;-2.518;2023-03-17T14:07:11;15.07;;;2.45;;
48859;SDS011;34679;51.436;-2.518;2023-03-17T14:09:43;9.93;;;2.47;;
48859;SDS011;34679;51.436;-2.518;2023-03-17T14:14:57;27.10;;;3.50;;
48859;SDS011;34679;51.436;-2.518;2023-03-17T14:17:29;7.05;;;1.63;;
48859;SDS011;34679;51.436;-2.518;2023-03-17T14:22:43;8.50;;;1.75;;
48859;SDS011;34679;51.436;-2.518;2023-03-17T14:25:17;10.80;;;1.85;;
48859;SDS011;34679;51.436;-2.518;2023-03-17T14:27:47;10.13;;;1.92;;
48859;SDS011;34679;51.436;-2.518;2023-03-17T14:30:17;11.10;;;1.75;;
48859;SDS011;34679;51.436;-2.518;2023-03-17T14:32:46;13.07;;;2.05;;
48859;SDS011;34679;51.436;-2.518;2023-03-17T14:35:14;14.57;;;2.00;;
48859;SDS011;34679;51.436;-2.518;2023-03-17T14:37:40;16.92;;;2.25;;
48859;SDS011;34679;51.436;-2.518;2023-03-17T14:40:19;14.43;;;2.70;;
48859;SDS011;34679;51.436;-2.518;2023-03-17T14:42:46;12.10;;;1.80;;
48859;SDS011;34679;51.436;-2.518;2023-03-17T14:45:20;12.65;;;2.17;;
48859;SDS011;34679;51.436;-2.518;2023-03-17T14:47:51;12.25;;;2.25;;
48859;SDS011;34679;51.436;-2.518;2023-03-17T14:50:29;17.33;;;2.40;;
48859;SDS011;34679;51.436;-2.518;2023-03-17T14:52:56;13.30;;;1.98;;
48859;SDS011;34679;51.436;-2.518;2023-03-17T14:55:27;7.55;;;1.50;;
48859;SDS011;34679;51.436;-2.518;2023-03-17T14:58:08;15.68;;;2.30;;
48859;SDS011;34679;51.436;-2.518;2023-03-17T15:00:43;15.75;;;2.55;;
48859;SDS011;34679;51.436;-2.518;2023-03-17T15:03:18;14.00;;;2.08;;
48859;SDS011;34679;51.436;-2.518;2023-03-17T15:05:46;10.25;;;1.83;;
48859;SDS011;34679;51.436;-2.518;2023-03-17T15:11:01;11.68;;;2.13;;
48859;SDS011;34679;51.436;-2.518;2023-03-17T15:13:31;8.45;;;1.83;;
48859;SDS011;34679;51.436;-2.518;2023-03-17T15:16:14;12.73;;;2.85;;
48859;SDS011;34679;51.436;-2.518;2023-03-17T15:18:41;17.10;;;2.30;;
48859;SDS011;34679;51.436;-2.518;2023-03-17T15:24:05;14.18;;;2.45;;
48859;SDS011;34679;51.436;-2.518;2023-03-17T15:26:46;13.57;;;2.72;;
48859;SDS011;34679;51.436;-2.518;2023-03-17T15:29:12;16.42;;;2.55;;
48859;SDS011;34679;51.436;-2.518;2023-03-17T15:31:38;18.35;;;2.70;;
48859;SDS011;34679;51.436;-2.518;2023-03-17T15:34:03;15.60;;;3.05;;
48859;SDS011;34679;51.436;-2.518;2023-03-17T15:36:29;12.27;;;3.38;;
48859;SDS011;34679;51.436;-2.518;2023-03-17T15:38:55;15.05;;;2.67;;
48859;SDS011;34679;51.436;-2.518;2023-03-17T15:41:21;13.60;;;2.58;;
48859;SDS011;34679;51.436;-2.518;2023-03-17T15:43:46;11.40;;;2.17;;
48859;SDS011;34679;51.436;-2.518;2023-03-17T15:46:20;19.48;;;2.45;;
48859;SDS011;34679;51.436;-2.518;2023-03-17T15:48:51;12.85;;;2.00;;
48859;SDS011;34679;51.436;-2.518;2023-03-17T15:51:16;12.77;;;2.20;;
48859;SDS011;34679;51.436;-2.518;2023-03-17T15:53:42;19.77;;;3.35;;
48859;SDS011;34679;51.436;-2.518;2023-03-17T15:56:15;12.60;;;2.33;;
48859;SDS011;34679;51.436;-2.518;2023-03-17T15:58:47;15.90;;;2.15;;
48859;SDS011;34679;51.436;-2.518;2023-03-17T16:01:16;12.38;;;2.05;;
48859;SDS011;34679;51.436;-2.518;2023-03-17T16:03:42;13.68;;;2.13;;
48859;SDS011;34679;51.436;-2.518;2023-03-17T16:06:15;13.00;;;1.80;;
48859;SDS011;34679;51.436;-2.518;2023-03-17T16:08:42;13.68;;;2.28;;
48859;SDS011;34679;51.436;-2.518;2023-03-17T16:11:11;12.73;;;1.88;;
48859;SDS011;34679;51.436;-2.518;2023-03-17T16:13:43;16.88;;;2.60;;
48859;SDS011;34679;51.436;-2.518;2023-03-17T16:19:13;14.77;;;2.15;;
48859;SDS011;34679;51.436;-2.518;2023-03-17T16:21:44;17.85;;;2.72;;
48859;SDS011;34679;51.436;-2.518;2023-03-17T16:24:28;15.27;;;1.88;;
48859;SDS011;34679;51.436;-2.518;2023-03-17T16:26:55;12.80;;;3.05;;